Terminal Aerodrome Forecast
Issued by NWS Charleston, WV

Current Version | Previous Version | Graphics & Text | Print | Product List | Glossary On
Versions: 1 2 3 4 5 6 7 8 9 10 11 12 13 14 15 16 17 18 19 20 21 22 23
920
FTUS41 KRLX 241136
TAFCRW
TAF
KCRW 241136Z 2412/2512 00000KT P6SM OVC022
     FM241400 14008KT P6SM OVC040
     FM242100 14010KT 4SM SHRA OVC025
     FM250100 17010KT P6SM SHRA OVC040
     FM250600 22006KT 6SM SHRA BKN035=

USA.gov is the U.S. government's official web portal to all federal, state and local government web resources and services.